»·PEaware :: N463KP KSNA-KSBD

N463KP :: KSNA-KSBD

FLIGHT INFORMATION

Flight Status: Arrived
Operator: Privately registered:
United States
More flights under this callsign
Pilot: Jordon B. (36337)
Aircraft: PIPER PA-28R-201 ARROW
(P28R)
More flights by this aircraft type
Origin: KSNA John Wayne-Orange Co
United States
Destination: KSBD San Bernardino Intl
United States
More flights between these airports :: More routes between these airports
Route:
File this flight plan on PilotEdge
Remarks:
Altitude:
(Current/Filed)
3,500ft
Speed:
(Current/Filed)
120kts
Departed: 27-Sep-21 02:52 PM
Arrived: 27-Sep-21 03:18 PM
Distance/Time
Traveled:
41nm/0:26
Distance/Time
To Go:
Arrived

Flight Plot

Page will automatically refresh every two minutes.


Map Options




Map Legend


Flown Route
Filed Route
Departure Airport
Arrival Airport
Navaid (VOR, NDB)
Fix

Horizontal Profiles

Position Reports

Time Latitude Longitude Heading Altitude Ground
Speed
27-Sep-21 14:25 33.670406 -117.868800 129 53ft 0kts
27-Sep-21 14:26 33.670406 -117.868800 129 53ft 0kts
27-Sep-21 14:27 33.670406 -117.868800 129 53ft 0kts
27-Sep-21 14:29 33.670406 -117.868800 129 53ft 0kts
27-Sep-21 14:29 33.670406 -117.868800 129 53ft 0kts
27-Sep-21 14:31 33.670406 -117.868800 129 53ft 0kts
27-Sep-21 14:31 33.670608 -117.868868 346 54ft 0kts
27-Sep-21 14:32 33.672629 -117.867811 31 56ft 18kts
27-Sep-21 14:33 33.675232 -117.866395 26 55ft 15kts
27-Sep-21 14:34 33.679674 -117.863560 29 45ft 0kts
27-Sep-21 14:35 33.679800 -117.863549 267 45ft 0kts
27-Sep-21 14:36 33.679983 -117.863714 305 45ft 0kts
27-Sep-21 14:37 33.679983 -117.863714 305 45ft 0kts
27-Sep-21 14:38 33.679983 -117.863714 305 45ft 0kts
27-Sep-21 14:39 33.679983 -117.863714 305 45ft 0kts
27-Sep-21 14:40 33.679983 -117.863714 305 45ft 0kts
27-Sep-21 14:41 33.679983 -117.863714 305 45ft 0kts
27-Sep-21 14:42 33.679983 -117.863714 305 45ft 0kts
27-Sep-21 14:43 33.679983 -117.863714 305 45ft 0kts
27-Sep-21 14:44 33.679983 -117.863714 305 45ft 0kts
27-Sep-21 14:46 33.679983 -117.863714 305 45ft 0kts
27-Sep-21 14:47 33.679983 -117.863714 305 45ft 0kts
27-Sep-21 14:48 33.679983 -117.863714 305 45ft 0kts
27-Sep-21 14:49 33.679983 -117.863714 305 45ft 0kts
27-Sep-21 14:50 33.680016 -117.864206 228 45ft 11kts
27-Sep-21 14:51 33.672582 -117.868845 212 123ft 84kts
27-Sep-21 14:52 33.652521 -117.883725 186 1039ft 87kts
27-Sep-21 14:53 33.639340 -117.862492 96 1908ft 97kts
27-Sep-21 14:54 33.633493 -117.831028 113 2795ft 102kts
27-Sep-21 14:55 33.617974 -117.800224 137 3495ft 111kts
27-Sep-21 14:56 33.594821 -117.776222 119 4262ft 112kts
27-Sep-21 14:57 33.603059 -117.742700 59 5058ft 103kts
27-Sep-21 14:58 33.617257 -117.711007 58 5540ft 127kts
27-Sep-21 14:59 33.642003 -117.677867 37 5692ft 133kts
27-Sep-21 15:00 33.671286 -117.647984 37 5776ft 141kts
27-Sep-21 15:01 33.701341 -117.617552 37 5785ft 141kts
27-Sep-21 15:02 33.731483 -117.587260 37 5779ft 141kts
27-Sep-21 15:03 33.762010 -117.556828 37 5772ft 142kts
27-Sep-21 15:04 33.792315 -117.526618 37 5758ft 140kts
27-Sep-21 15:05 33.822314 -117.496927 37 5773ft 140kts
27-Sep-21 15:06 33.852747 -117.466898 37 5783ft 142kts
27-Sep-21 15:07 33.883148 -117.436999 37 5784ft 141kts
27-Sep-21 15:08 33.913714 -117.407117 37 5787ft 141kts
27-Sep-21 15:09 33.944541 -117.376754 37 5450ft 146kts
27-Sep-21 15:10 33.976434 -117.345716 37 4766ft 149kts
27-Sep-21 15:11 34.008945 -117.314316 37 4075ft 150kts
27-Sep-21 15:12 34.041372 -117.282998 37 3378ft 147kts
27-Sep-21 15:13 34.072559 -117.252086 40 2678ft 140kts
27-Sep-21 15:14 34.091158 -117.213349 59 2023ft 124kts
27-Sep-21 15:15 34.109148 -117.185143 346 1743ft 95kts
27-Sep-21 15:16 34.103048 -117.208940 250 1383ft 83kts
27-Sep-21 15:17 34.097149 -117.228825 250 1138ft 24kts
27-Sep-21 15:18 34.095688 -117.235920 308 1126ft 20kts
27-Sep-21 15:19 34.096006 -117.236185 334 1125ft 0kts
27-Sep-21 15:20 34.097626 -117.233524 70 1133ft 25kts
27-Sep-21 15:21 34.100138 -117.225331 358 1151ft 5kts
27-Sep-21 15:22 34.101285 -117.225170 93 1152ft 0kts
27-Sep-21 15:23 34.101285 -117.225170 93 1152ft 0kts
27-Sep-21 15:24 34.101285 -117.225170 93 1152ft 0kts

Navigation Log

Ident Type
Flight plan parsing failed, navigation log unavailable